createdAt,value
2022-10-04T00:02:15.575Z,1.80
2022-10-04T00:05:09.233Z,1.95
2022-10-04T00:07:58.486Z,1.85
2022-10-04T00:10:46.833Z,2.00
2022-10-04T00:13:34.390Z,2.00
2022-10-04T00:16:33.680Z,2.00
2022-10-04T00:19:19.822Z,2.10
2022-10-04T00:22:08.402Z,2.10
2022-10-04T00:25:07.051Z,2.08
2022-10-04T00:28:35.616Z,1.92
2022-10-04T00:31:26.347Z,1.90
2022-10-04T00:34:12.486Z,2.10
2022-10-04T00:36:58.699Z,2.28
2022-10-04T00:39:47.537Z,2.20
2022-10-04T00:42:42.104Z,2.30
2022-10-04T00:45:33.462Z,2.10
2022-10-04T00:48:41.559Z,2.00
2022-10-04T00:51:31.943Z,1.85
2022-10-04T00:54:27.602Z,2.00
2022-10-04T00:57:21.457Z,2.20
2022-10-04T01:00:12.878Z,2.12
2022-10-04T01:03:04.074Z,2.03
2022-10-04T01:05:53.949Z,2.15
2022-10-04T01:08:48.590Z,2.60
2022-10-04T01:11:42.534Z,2.10
2022-10-04T01:14:41.418Z,2.10
2022-10-04T01:17:27.593Z,2.15
2022-10-04T01:20:48.870Z,2.25
2022-10-04T01:23:42.554Z,2.55
2022-10-04T01:26:35.011Z,2.20
2022-10-04T01:29:27.188Z,2.60
2022-10-04T01:32:14.263Z,2.40
2022-10-04T01:35:00.317Z,2.47
2022-10-04T01:37:46.749Z,2.00
2022-10-04T01:40:33.851Z,2.35
2022-10-04T01:43:25.119Z,2.15
2022-10-04T01:46:14.173Z,2.42
2022-10-04T01:49:03.913Z,2.45
2022-10-04T01:51:57.990Z,2.30
2022-10-04T01:54:48.939Z,2.50
2022-10-04T01:57:42.928Z,2.47
2022-10-04T02:00:30.648Z,2.40
2022-10-04T02:03:21.033Z,2.30
2022-10-04T02:06:09.167Z,2.53
2022-10-04T02:08:57.577Z,2.70
2022-10-04T02:11:45.002Z,3.22
2022-10-04T02:14:35.417Z,2.67
2022-10-04T02:17:24.158Z,2.40
2022-10-04T02:20:17.718Z,2.30
2022-10-04T02:23:03.573Z,2.70
2022-10-04T02:25:49.948Z,2.45
2022-10-04T02:28:36.650Z,2.90
2022-10-04T02:31:42.551Z,2.40
2022-10-04T02:34:30.021Z,2.73
2022-10-04T02:37:18.438Z,2.60
2022-10-04T02:40:17.369Z,2.50
2022-10-04T02:43:09.475Z,2.80
2022-10-04T02:46:04.426Z,2.50
2022-10-04T02:48:59.021Z,2.70
2022-10-04T02:52:01.306Z,2.70
2022-10-04T02:55:12.222Z,2.60
2022-10-04T02:57:58.953Z,2.50
2022-10-04T03:01:05.563Z,2.33
2022-10-04T03:03:52.440Z,2.30
2022-10-04T03:06:39.391Z,2.60
2022-10-04T03:09:29.734Z,2.70
2022-10-04T03:12:16.569Z,2.50
2022-10-04T03:15:03.128Z,2.55
2022-10-04T03:17:50.276Z,2.12
2022-10-04T03:20:39.903Z,1.98
2022-10-04T03:23:26.230Z,2.30
2022-10-04T03:26:36.856Z,2.30
2022-10-04T03:29:25.724Z,2.30
2022-10-04T03:32:14.306Z,2.45
2022-10-04T03:35:04.642Z,2.12
2022-10-04T03:37:51.031Z,2.25
2022-10-04T03:40:38.718Z,2.45
2022-10-04T03:43:38.341Z,2.62
2022-10-04T03:46:25.650Z,2.40
2022-10-04T03:49:17.375Z,2.58
2022-10-04T03:52:04.929Z,2.85
2022-10-04T03:54:53.537Z,2.42
2022-10-04T03:57:39.700Z,2.67
2022-10-04T04:00:26.145Z,2.75
2022-10-04T04:03:16.866Z,2.80
2022-10-04T04:06:06.371Z,2.50
2022-10-04T04:08:54.341Z,2.40
2022-10-04T04:11:40.525Z,2.67
2022-10-04T04:14:27.880Z,2.67
2022-10-04T04:17:29.393Z,2.80
2022-10-04T04:20:36.961Z,2.60
2022-10-04T04:23:33.080Z,2.60
2022-10-04T04:26:25.795Z,2.90
2022-10-04T04:29:26.261Z,2.43
2022-10-04T04:32:23.931Z,2.70
2022-10-04T04:35:31.855Z,2.55
2022-10-04T04:38:22.202Z,2.70
2022-10-04T04:41:10.823Z,2.80
2022-10-04T04:43:58.334Z,2.85
2022-10-04T04:46:46.466Z,2.40
2022-10-04T04:49:33.761Z,2.25
2022-10-04T04:52:23.046Z,2.85
2022-10-04T04:55:18.993Z,2.83
2022-10-04T04:58:05.180Z,2.67
2022-10-04T05:01:00.132Z,3.10
2022-10-04T05:04:00.173Z,2.92
2022-10-04T05:06:49.525Z,2.90
2022-10-04T05:09:38.544Z,3.00
2022-10-04T05:12:24.866Z,3.67
2022-10-04T05:15:11.183Z,2.92
2022-10-04T05:17:57.688Z,2.90
2022-10-04T05:20:48.833Z,2.85
2022-10-04T05:23:35.576Z,2.72
2022-10-04T05:26:29.689Z,3.50
2022-10-04T05:29:18.383Z,3.90
2022-10-04T05:32:10.258Z,3.90
2022-10-04T05:34:57.773Z,3.97
2022-10-04T05:38:02.507Z,3.55
2022-10-04T05:40:59.349Z,3.42
2022-10-04T05:43:47.559Z,4.12
2022-10-04T05:46:34.967Z,3.70
2022-10-04T05:49:22.552Z,3.87
2022-10-04T05:52:15.558Z,4.00
2022-10-04T05:55:32.396Z,4.18
2022-10-04T05:58:21.718Z,3.80
2022-10-04T06:01:17.368Z,3.60
2022-10-04T06:04:44.204Z,3.80
2022-10-04T06:07:43.608Z,3.92
2022-10-04T06:10:58.038Z,3.12
2022-10-04T06:13:59.485Z,3.20
2022-10-04T06:17:04.958Z,2.83
2022-10-04T06:20:01.869Z,3.20
2022-10-04T06:22:49.641Z,2.95
2022-10-04T06:25:43.153Z,2.90
2022-10-04T06:28:36.955Z,3.05
2022-10-04T06:31:45.102Z,3.07
2022-10-04T06:34:45.412Z,3.40
2022-10-04T06:38:04.018Z,3.30
2022-10-04T06:41:01.483Z,3.53
2022-10-04T06:44:12.540Z,3.30
2022-10-04T06:48:10.074Z,3.55
2022-10-04T06:51:01.938Z,3.10
2022-10-04T06:54:13.082Z,3.30
2022-10-04T06:57:19.016Z,3.50
2022-10-04T07:00:26.216Z,3.30
2022-10-04T07:03:16.121Z,3.60
2022-10-04T07:06:07.292Z,3.20
2022-10-04T07:08:59.565Z,3.15
2022-10-04T07:11:59.938Z,3.80
2022-10-04T07:14:50.330Z,3.35
2022-10-04T07:17:40.632Z,3.08
2022-10-04T07:20:31.229Z,3.03
2022-10-04T07:23:51.295Z,2.72
2022-10-04T07:26:45.339Z,2.83
2022-10-04T07:29:39.909Z,2.60
2022-10-04T07:32:30.124Z,2.50
2022-10-04T07:35:32.849Z,2.50
2022-10-04T07:38:30.180Z,2.50
2022-10-04T07:41:31.626Z,2.63
2022-10-04T07:44:39.822Z,2.33
2022-10-04T07:47:27.877Z,1.95
2022-10-04T07:50:40.251Z,1.80
2022-10-04T07:53:37.754Z,1.95
2022-10-04T07:56:34.285Z,4.55
2022-10-04T07:59:35.010Z,2.22
2022-10-04T08:02:32.399Z,1.70
2022-10-04T11:32:00.666Z,2.40
2022-10-04T11:35:26.728Z,1.90
2022-10-04T11:38:16.558Z,1.90
2022-10-04T11:41:22.370Z,2.08
2022-10-04T11:44:31.099Z,1.60
2022-10-04T11:47:43.352Z,1.50
2022-10-04T11:50:48.129Z,1.67
2022-10-04T11:54:03.618Z,1.83
2022-10-04T11:57:12.347Z,1.62
2022-10-04T12:00:17.791Z,1.80
2022-10-04T12:03:27.903Z,1.85
2022-10-04T12:06:40.101Z,1.70
2022-10-04T12:09:45.907Z,2.60
2022-10-04T12:13:07.788Z,1.60
2022-10-04T12:16:16.742Z,1.80
2022-10-04T12:19:16.791Z,1.95
2022-10-04T12:22:23.728Z,2.25
2022-10-04T12:25:32.938Z,2.33
2022-10-04T12:28:47.664Z,2.50
2022-10-04T12:31:42.824Z,2.40
2022-10-04T12:34:38.533Z,2.55
2022-10-04T12:37:34.767Z,1.70
2022-10-04T12:40:33.745Z,2.17
2022-10-04T12:44:03.739Z,2.10
2022-10-04T12:53:56.707Z,2.05
2022-10-04T12:56:50.534Z,2.60
2022-10-04T13:00:00.059Z,2.62
2022-10-04T13:03:28.769Z,2.20
2022-10-04T13:07:00.778Z,1.92
2022-10-04T13:10:30.175Z,1.80
2022-10-04T13:13:35.108Z,1.90
2022-10-04T13:20:05.905Z,1.60
2022-10-04T13:23:19.960Z,1.85
2022-10-04T13:29:36.295Z,2.20
2022-10-04T13:32:30.306Z,1.25
2022-10-04T13:35:30.939Z,1.62
2022-10-04T13:39:02.128Z,1.70
2022-10-04T13:42:07.653Z,1.75
2022-10-04T13:45:36.358Z,1.55
2022-10-04T13:48:38.235Z,1.37
2022-10-04T13:51:32.626Z,1.70
2022-10-04T13:55:15.313Z,1.30
2022-10-04T13:58:25.001Z,1.10
2022-10-04T14:01:59.708Z,1.35
2022-10-04T14:05:19.076Z,1.45
2022-10-04T14:08:28.925Z,1.60
2022-10-04T14:11:38.432Z,1.37
2022-10-04T14:18:28.881Z,1.20
2022-10-04T14:21:57.429Z,1.10
2022-10-04T14:25:21.303Z,1.23
2022-10-04T14:31:37.984Z,4.05
2022-10-04T14:34:45.866Z,3.58
2022-10-04T14:38:15.801Z,1.70
2022-10-04T14:41:13.992Z,2.10
2022-10-04T14:44:26.935Z,1.25
2022-10-04T14:47:36.335Z,1.02
2022-10-04T14:50:36.754Z,1.10
2022-10-04T14:53:50.079Z,1.10
2022-10-04T14:56:59.155Z,1.20
2022-10-04T14:59:59.462Z,1.33
2022-10-04T15:06:36.722Z,1.00
2022-10-04T15:10:22.935Z,0.80
2022-10-04T15:13:40.933Z,0.90
2022-10-04T15:16:47.285Z,0.80
2022-10-04T15:20:02.765Z,1.00
2022-10-04T15:23:03.722Z,1.02
2022-10-04T15:26:05.774Z,1.00
